Moncure, NC (27559)

9:18 AM EDT on August 29, 2016 (GMT -0400)
Old Chestnut Crossing | | Change Station

Elev 415 ft 35.66 °N, 79.11 °W | Updated 12 minutes ago

Clear
Clear
71.4 °F
Feels Like 71.4 °F
N
1.0
Wind Variable Wind from WSW
Gusts 4.0 mph

Today
High -- | Low -- °F
--% Chance of Precip.
Yesterday
High -- | Low -- °F
Precip. -- in
Pressure 30.14 in
Visibility 10.0 miles
Clouds Clear
Dew Point 70 °F
Humidity 96%
Rainfall 0.00 in
Snow Depth Not available.
6:46 AM 7:47 PM
Waning Crescent, 9% visible
METAR KTTA 291300Z AUTO 00000KT 10SM CLR 22/21 A3014 RMK AO2 T02150209
Pressure 30.14 in
Visibility 10.0 miles
Clouds Clear
Dew Point 70 °F
Humidity 96%
Rainfall 0.00 in
Snow Depth Not available.
6:46 AM 7:47 PM
Waning Crescent, 9% visible
METAR KTTA 291300Z AUTO 00000KT 10SM CLR 22/21 A3014 RMK AO2 T02150209

10-Day Weather Forecast

Almanac

Astronomy

Aug. 29, 2016 Rise Set
Actual Time
Civil Twilight
Nautical Twilight
Astronomical Twilight
Moon
Length of Visible Light
Length of Day
Tomorrow will be .
, % of the Moon is Illuminated

Today's Extremes

State Highs State Lows

Community

WunderPhotos

Upload Photos

1,935,817 photos uploaded!

WunderBlog® & News

Nearby

Air Quality

  Air Quality AQ Index Pollutant
Not available.

Snow Depth

Station Depth Elevation

Earthquake Activity

City Distance Mag. Time & Date
Minimum magnitude displayed is 2.5.

Coastal Water Temperatures

Place Temperature

Stations

Nearby Weather Stations

Station Location Temp. Windchill Dew Point Humidity Wind Precip. Elev Updated Type
                   

Watches & Warnings

There are currently no watches in effect.